createdAt,value
2018-08-22T00:00:19.500Z,1.90
2018-08-22T00:02:47.735Z,1.80
2018-08-22T00:05:15.922Z,2.10
2018-08-22T00:07:44.155Z,1.98
2018-08-22T00:10:12.923Z,2.10
2018-08-22T00:12:41.155Z,1.98
2018-08-22T00:15:09.412Z,1.67
2018-08-22T00:17:37.591Z,1.77
2018-08-22T00:20:05.972Z,1.75
2018-08-22T00:22:34.288Z,2.12
2018-08-22T00:25:02.395Z,1.80
2018-08-22T00:27:30.595Z,1.70
2018-08-22T00:29:58.787Z,2.20
2018-08-22T00:32:27.040Z,2.05
2018-08-22T00:34:55.253Z,1.92
2018-08-22T00:37:23.513Z,2.08
2018-08-22T00:39:52.506Z,2.00
2018-08-22T00:42:20.706Z,1.87
2018-08-22T00:44:48.935Z,2.02
2018-08-22T00:47:17.138Z,2.22
2018-08-22T00:49:45.602Z,2.10
2018-08-22T00:52:13.838Z,2.02
2018-08-22T00:54:42.050Z,1.90
2018-08-22T00:57:10.288Z,2.20
2018-08-22T00:59:38.684Z,1.70
2018-08-22T01:02:06.939Z,2.12
2018-08-22T01:04:36.064Z,1.98
2018-08-22T01:07:04.302Z,1.90
2018-08-22T01:09:32.499Z,2.00
2018-08-22T01:12:00.706Z,1.90
2018-08-22T01:14:30.156Z,1.62
2018-08-22T01:16:59.552Z,1.77
2018-08-22T01:19:28.971Z,1.87
2018-08-22T01:21:58.359Z,2.25
2018-08-22T01:24:27.584Z,1.95
2018-08-22T01:26:57.267Z,2.08
2018-08-22T01:29:26.245Z,1.63
2018-08-22T01:31:55.241Z,1.87
2018-08-22T01:34:24.531Z,2.00
2018-08-22T01:36:53.914Z,2.10
2018-08-22T01:39:22.148Z,1.90
2018-08-22T01:41:50.380Z,1.90
2018-08-22T01:44:18.567Z,1.98
2018-08-22T01:46:46.773Z,2.30
2018-08-22T01:49:14.965Z,1.60
2018-08-22T01:51:43.215Z,2.25
2018-08-22T01:54:11.403Z,2.02
2018-08-22T01:56:39.595Z,1.87
2018-08-22T01:59:07.832Z,1.90
2018-08-22T02:01:36.031Z,1.90
2018-08-22T02:04:04.259Z,1.67
2018-08-22T02:06:32.515Z,2.02
2018-08-22T02:09:01.215Z,1.90
2018-08-22T02:11:29.416Z,1.80
2018-08-22T02:13:57.690Z,2.00
2018-08-22T02:16:25.925Z,2.00
2018-08-22T02:18:54.138Z,1.82
2018-08-22T02:21:22.376Z,1.85
2018-08-22T02:23:50.592Z,1.95
2018-08-22T02:26:18.819Z,1.60
2018-08-22T02:28:47.051Z,2.02
2018-08-22T02:31:15.279Z,1.90
2018-08-22T02:33:43.479Z,2.00
2018-08-22T02:36:11.708Z,1.77
2018-08-22T02:38:39.913Z,2.00
2018-08-22T02:41:08.111Z,1.95
2018-08-22T02:43:36.338Z,2.02
2018-08-22T02:46:04.797Z,2.20
2018-08-22T02:48:37.234Z,2.12
2018-08-22T02:51:05.411Z,1.98
2018-08-22T02:53:33.623Z,2.10
2018-08-22T02:56:01.839Z,2.50
2018-08-22T02:58:30.035Z,2.00
2018-08-22T03:00:58.266Z,1.98
2018-08-22T03:03:26.495Z,1.87
2018-08-22T03:05:54.986Z,1.87
2018-08-22T03:08:23.248Z,2.05
2018-08-22T03:10:51.455Z,2.40
2018-08-22T03:13:19.705Z,2.40
2018-08-22T03:15:47.883Z,2.05
2018-08-22T03:18:16.127Z,2.30
2018-08-22T03:20:44.518Z,2.30
2018-08-22T03:23:12.755Z,2.00
2018-08-22T03:25:41.162Z,2.30
2018-08-22T03:28:09.542Z,2.30
2018-08-22T03:30:37.744Z,2.00
2018-08-22T03:33:05.995Z,2.40
2018-08-22T03:35:34.369Z,2.40
2018-08-22T03:38:02.564Z,2.15
2018-08-22T03:40:30.803Z,2.60
2018-08-22T03:42:59.415Z,2.22
2018-08-22T03:45:27.625Z,2.37
2018-08-22T03:47:55.853Z,2.55
2018-08-22T03:50:24.084Z,2.45
2018-08-22T03:52:52.328Z,2.55
2018-08-22T03:55:20.584Z,2.47
2018-08-22T03:57:48.784Z,2.85
2018-08-22T04:00:17.005Z,2.70
2018-08-22T04:02:45.248Z,20.20
2018-08-22T04:05:13.449Z,3.08
2018-08-22T04:07:41.695Z,2.63
2018-08-22T04:10:09.919Z,2.62
2018-08-22T04:12:38.103Z,2.45
2018-08-22T04:15:06.311Z,2.27
2018-08-22T04:17:36.807Z,2.60
2018-08-22T04:20:05.543Z,2.05
2018-08-22T04:22:34.036Z,2.50
2018-08-22T04:25:02.474Z,2.70
2018-08-22T04:27:30.692Z,2.20
2018-08-22T04:29:58.895Z,2.40
2018-08-22T04:32:27.826Z,2.67
2018-08-22T04:34:56.211Z,2.50
2018-08-22T04:37:24.678Z,2.30
2018-08-22T04:39:52.935Z,2.33
2018-08-22T04:42:21.192Z,2.77
2018-08-22T04:44:49.722Z,2.33
2018-08-22T04:47:18.054Z,2.50
2018-08-22T04:49:46.278Z,3.10
2018-08-22T04:52:15.059Z,2.87
2018-08-22T04:54:43.320Z,2.75
2018-08-22T04:57:11.507Z,2.45
2018-08-22T04:59:39.723Z,2.65
2018-08-22T05:02:08.023Z,3.25
2018-08-22T05:04:36.257Z,2.90
2018-08-22T05:07:04.488Z,2.58
2018-08-22T05:09:32.739Z,2.47
2018-08-22T05:12:00.931Z,2.40
2018-08-22T05:14:29.164Z,2.50
2018-08-22T05:16:57.400Z,2.67
2018-08-22T05:19:25.626Z,2.50
2018-08-22T05:21:53.880Z,2.45
2018-08-22T05:24:22.163Z,2.40
2018-08-22T05:26:50.337Z,2.60
2018-08-22T05:29:18.587Z,2.47
2018-08-22T05:31:46.835Z,2.47
2018-08-22T05:34:15.050Z,2.40
2018-08-22T05:36:43.239Z,3.10
2018-08-22T05:39:12.919Z,2.62
2018-08-22T05:41:41.565Z,2.50
2018-08-22T05:44:09.856Z,2.53
2018-08-22T05:46:38.067Z,2.83
2018-08-22T05:49:06.286Z,2.35
2018-08-22T05:51:34.488Z,2.70
2018-08-22T05:54:02.732Z,2.50
2018-08-22T05:56:30.976Z,2.40
2018-08-22T05:58:59.209Z,2.60
2018-08-22T06:01:27.440Z,2.17
2018-08-22T06:03:55.658Z,2.67
2018-08-22T06:06:23.927Z,2.83
2018-08-22T06:08:52.168Z,2.93
2018-08-22T06:11:20.400Z,2.52
2018-08-22T06:13:48.655Z,2.75
2018-08-22T06:16:16.881Z,2.20
2018-08-22T06:18:45.094Z,3.60
2018-08-22T06:21:13.460Z,2.20
2018-08-22T06:23:41.779Z,2.42
2018-08-22T06:26:10.064Z,2.90
2018-08-22T06:28:38.317Z,2.25
2018-08-22T06:31:06.535Z,2.98
2018-08-22T06:33:34.760Z,2.22
2018-08-22T06:36:02.951Z,1.90
2018-08-22T06:38:31.168Z,1.82
2018-08-22T06:40:59.387Z,2.40
2018-08-22T06:43:27.624Z,2.33
2018-08-22T06:45:55.840Z,2.05
2018-08-22T06:48:24.052Z,1.98
2018-08-22T06:50:52.269Z,2.27
2018-08-22T06:53:20.507Z,2.05
2018-08-22T06:55:48.716Z,2.50
2018-08-22T06:58:16.928Z,2.27
2018-08-22T07:00:45.163Z,1.80
2018-08-22T07:03:13.394Z,2.10
2018-08-22T07:05:41.613Z,2.00
2018-08-22T07:08:09.917Z,2.20
2018-08-22T07:10:38.137Z,2.15
2018-08-22T07:13:06.540Z,2.22
2018-08-22T07:15:34.757Z,2.20
2018-08-22T07:18:03.028Z,2.08
2018-08-22T07:20:31.312Z,2.00
2018-08-22T07:22:59.552Z,2.72
2018-08-22T07:25:27.832Z,2.17
2018-08-22T07:27:56.025Z,1.82
2018-08-22T07:30:24.244Z,2.47
2018-08-22T07:32:52.472Z,1.80
2018-08-22T07:35:20.715Z,1.72
2018-08-22T07:37:48.931Z,1.72
2018-08-22T07:40:17.152Z,1.80
2018-08-22T07:42:45.363Z,1.92
2018-08-22T07:45:13.618Z,1.67
2018-08-22T07:47:41.832Z,1.85
2018-08-22T07:50:10.038Z,1.70
2018-08-22T07:52:48.740Z,1.55
2018-08-22T07:55:17.878Z,1.82
2018-08-22T07:57:46.105Z,2.40
2018-08-22T08:00:14.427Z,1.60
2018-08-22T08:02:42.680Z,1.67
2018-08-22T08:05:10.909Z,1.50
2018-08-22T08:07:39.176Z,1.80
2018-08-22T08:10:07.962Z,1.30
2018-08-22T08:12:40.132Z,2.17
2018-08-22T08:15:08.993Z,1.60
2018-08-22T08:17:37.229Z,1.45
2018-08-22T08:20:05.503Z,1.80
2018-08-22T08:22:33.699Z,1.40
2018-08-22T08:25:01.921Z,1.20
2018-08-22T08:27:30.164Z,1.30
2018-08-22T08:29:58.387Z,1.82
2018-08-22T08:32:26.598Z,1.40
2018-08-22T08:34:54.917Z,1.60
2018-08-22T08:37:23.162Z,1.30
2018-08-22T08:39:51.389Z,1.60
2018-08-22T08:42:19.596Z,1.55
2018-08-22T08:44:47.779Z,1.47
2018-08-22T08:47:15.988Z,1.27
2018-08-22T08:49:44.224Z,1.82
2018-08-22T08:52:12.480Z,1.40
2018-08-22T08:54:40.827Z,1.50
2018-08-22T08:57:09.093Z,1.47
2018-08-22T08:59:38.445Z,1.40
2018-08-22T09:02:06.808Z,1.90
2018-08-22T09:04:35.088Z,1.70
2018-08-22T09:07:03.503Z,1.87
2018-08-22T09:09:31.792Z,2.52
2018-08-22T09:12:01.064Z,1.95
2018-08-22T09:14:29.821Z,1.72
2018-08-22T09:16:58.839Z,1.80
2018-08-22T09:19:27.696Z,1.65
2018-08-22T09:21:55.866Z,2.35
2018-08-22T09:24:24.133Z,1.75
2018-08-22T09:26:52.324Z,1.87
2018-08-22T09:29:20.520Z,1.75
2018-08-22T09:31:48.739Z,1.72
2018-08-22T09:34:16.955Z,1.57
2018-08-22T09:36:45.185Z,1.47
2018-08-22T09:39:14.162Z,2.20
2018-08-22T09:41:42.547Z,1.75
2018-08-22T09:44:10.776Z,1.95
2018-08-22T09:46:39.863Z,1.62
2018-08-22T09:49:08.212Z,1.98
2018-08-22T09:51:36.453Z,1.67
2018-08-22T09:54:04.668Z,1.80
2018-08-22T09:56:32.977Z,1.95
2018-08-22T09:59:01.281Z,1.50
2018-08-22T10:01:34.952Z,1.60
2018-08-22T10:04:03.311Z,1.60
2018-08-22T10:06:37.725Z,1.70
2018-08-22T10:09:18.640Z,1.90
2018-08-22T10:11:46.927Z,2.05
2018-08-22T10:14:15.313Z,1.70
2018-08-22T10:16:43.671Z,2.00
2018-08-22T10:19:11.899Z,1.52
2018-08-22T10:21:40.111Z,1.50
2018-08-22T10:24:08.333Z,1.55
2018-08-22T10:26:36.675Z,1.37
2018-08-22T10:29:05.315Z,1.50
2018-08-22T10:31:33.565Z,1.27
2018-08-22T10:34:01.831Z,1.37
2018-08-22T10:36:30.045Z,1.57
2018-08-22T10:38:58.219Z,1.30
2018-08-22T10:41:26.476Z,1.40
2018-08-22T10:43:54.675Z,1.60
2018-08-22T10:46:22.909Z,1.25
2018-08-22T10:48:51.144Z,1.47
2018-08-22T10:51:19.369Z,1.70
2018-08-22T10:53:47.620Z,1.70
2018-08-22T10:56:15.873Z,1.55
2018-08-22T10:58:44.128Z,1.40
2018-08-22T11:01:19.016Z,2.55
2018-08-22T11:03:47.473Z,1.50
2018-08-22T11:06:15.688Z,1.40
2018-08-22T11:08:43.950Z,1.92
2018-08-22T11:11:12.154Z,1.57
2018-08-22T11:13:40.385Z,1.20
2018-08-22T11:16:08.854Z,1.30
2018-08-22T11:18:37.072Z,1.52
2018-08-22T11:21:16.636Z,1.15
2018-08-22T11:23:56.371Z,1.47
2018-08-22T11:26:36.160Z,2.02
2018-08-22T11:29:15.809Z,1.10
2018-08-22T11:31:55.654Z,1.47
2018-08-22T11:34:35.346Z,1.35
2018-08-22T11:37:05.502Z,1.47
2018-08-22T11:39:33.888Z,1.30
2018-08-22T11:42:02.544Z,2.00
2018-08-22T11:44:30.940Z,1.40
2018-08-22T11:46:59.856Z,1.03
2018-08-22T11:49:29.441Z,1.37
2018-08-22T11:51:58.056Z,1.52
2018-08-22T11:54:26.404Z,1.70
2018-08-22T11:56:54.593Z,1.57
2018-08-22T11:59:22.859Z,1.22
2018-08-22T12:01:51.465Z,2.10
2018-08-22T12:04:20.091Z,1.27
2018-08-22T12:06:48.401Z,1.12
2018-08-22T12:09:16.661Z,1.07
2018-08-22T12:11:44.860Z,1.20
2018-08-22T12:14:13.106Z,1.30
2018-08-22T12:16:41.801Z,1.00
2018-08-22T12:19:10.541Z,0.88
2018-08-22T12:21:39.479Z,1.20
2018-08-22T12:24:07.694Z,1.05
2018-08-22T12:26:36.100Z,1.17
2018-08-22T12:29:04.464Z,1.10
2018-08-22T12:31:33.077Z,0.88
2018-08-22T12:34:01.357Z,1.00
2018-08-22T12:36:29.621Z,1.05
2018-08-22T12:38:57.824Z,1.22
2018-08-22T12:41:26.295Z,1.30
2018-08-22T12:43:54.732Z,1.20
2018-08-22T12:46:23.076Z,1.20
2018-08-22T12:48:51.286Z,0.93
2018-08-22T12:51:19.703Z,1.05
2018-08-22T12:53:47.936Z,1.17
2018-08-22T12:56:16.164Z,1.00
2018-08-22T12:58:44.420Z,1.20
2018-08-22T13:01:12.625Z,0.90
2018-08-22T13:03:40.816Z,1.20
2018-08-22T13:06:09.051Z,1.00
2018-08-22T13:08:37.293Z,0.80
2018-08-22T13:11:05.593Z,1.10
2018-08-22T13:13:33.869Z,1.10
2018-08-22T13:16:02.233Z,1.85
2018-08-22T13:18:30.517Z,1.10
2018-08-22T13:20:58.759Z,0.90
2018-08-22T13:23:26.952Z,1.52
2018-08-22T13:25:55.143Z,0.88
2018-08-22T13:28:23.391Z,1.20
2018-08-22T13:30:51.601Z,0.75
2018-08-22T13:33:19.841Z,1.10
2018-08-22T13:35:48.059Z,1.20
2018-08-22T13:38:16.269Z,1.25
2018-08-22T13:40:44.492Z,1.12
2018-08-22T13:43:12.772Z,1.60
2018-08-22T13:45:41.044Z,1.10
2018-08-22T13:48:09.291Z,1.22
2018-08-22T13:50:37.571Z,1.00
2018-08-22T13:53:05.837Z,1.22
2018-08-22T13:55:34.100Z,1.07
2018-08-22T13:58:02.461Z,1.10
2018-08-22T14:00:30.696Z,1.00
2018-08-22T14:02:58.947Z,1.37
2018-08-22T14:05:27.199Z,2.45
2018-08-22T14:07:55.624Z,1.45
2018-08-22T14:10:23.827Z,1.70
2018-08-22T14:12:52.035Z,1.57
2018-08-22T14:15:20.260Z,1.20
2018-08-22T14:17:48.490Z,1.50
2018-08-22T14:20:16.765Z,1.40
2018-08-22T14:22:45.000Z,1.42
2018-08-22T14:25:13.196Z,1.40
2018-08-22T14:27:41.445Z,1.32
2018-08-22T14:30:09.688Z,1.00
2018-08-22T14:32:37.896Z,1.30
2018-08-22T14:35:06.248Z,1.00
2018-08-22T14:37:34.460Z,1.20
2018-08-22T14:40:02.692Z,1.50
2018-08-22T14:42:31.009Z,1.50
2018-08-22T14:44:59.310Z,1.37
2018-08-22T14:47:27.597Z,1.50
2018-08-22T14:49:55.969Z,1.40
2018-08-22T14:52:24.186Z,2.00
2018-08-22T14:54:52.404Z,1.40
2018-08-22T14:57:20.644Z,1.50
2018-08-22T14:59:48.865Z,1.50
2018-08-22T15:02:17.125Z,1.62
2018-08-22T15:04:45.295Z,1.35
2018-08-22T15:07:13.515Z,1.33
2018-08-22T15:09:41.724Z,1.67
2018-08-22T15:12:09.944Z,1.30
2018-08-22T15:14:38.195Z,1.90
2018-08-22T15:17:06.502Z,1.70
2018-08-22T15:19:34.837Z,1.95
2018-08-22T15:22:03.217Z,2.60
2018-08-22T15:24:31.698Z,2.00
2018-08-22T15:27:00.242Z,2.20
2018-08-22T15:29:28.467Z,2.08
2018-08-22T15:31:56.701Z,2.20
2018-08-22T15:34:35.000Z,1.67
2018-08-22T15:37:03.403Z,2.40
2018-08-22T15:39:31.673Z,1.80
2018-08-22T15:42:00.020Z,2.08
2018-08-22T15:44:28.215Z,2.25
2018-08-22T15:46:56.452Z,1.90
2018-08-22T15:49:24.703Z,1.90
2018-08-22T15:51:52.915Z,2.15
2018-08-22T15:54:21.121Z,2.17
2018-08-22T15:56:49.337Z,1.95
2018-08-22T15:59:18.385Z,2.10
2018-08-22T16:01:46.635Z,2.25
2018-08-22T16:04:14.870Z,1.90
2018-08-22T16:06:43.096Z,2.22
2018-08-22T16:09:17.248Z,2.33
2018-08-22T16:11:45.589Z,2.67
2018-08-22T16:14:13.795Z,2.50
2018-08-22T16:16:42.012Z,2.72
2018-08-22T16:19:10.254Z,2.72
2018-08-22T16:21:38.520Z,2.30
2018-08-22T16:24:07.156Z,2.40
2018-08-22T16:26:35.391Z,2.40
2018-08-22T16:29:03.704Z,2.60
2018-08-22T16:31:39.127Z,2.50
2018-08-22T16:34:09.581Z,2.33
2018-08-22T16:36:39.115Z,2.75
2018-08-22T16:39:07.922Z,2.40
2018-08-22T16:41:36.240Z,2.27
2018-08-22T16:44:04.558Z,2.80
2018-08-22T16:46:32.816Z,2.42
2018-08-22T16:49:01.091Z,2.30
2018-08-22T16:51:29.440Z,2.40
2018-08-22T16:54:12.201Z,2.60
2018-08-22T16:56:40.932Z,2.35
2018-08-22T16:59:10.281Z,2.80
2018-08-22T17:01:40.228Z,2.55
2018-08-22T17:04:08.441Z,2.72
2018-08-22T17:06:36.695Z,3.35
2018-08-22T17:09:07.498Z,2.63
2018-08-22T17:11:35.771Z,2.77
2018-08-22T17:14:04.055Z,2.58
2018-08-22T17:16:32.278Z,2.87
2018-08-22T17:19:00.654Z,2.98
2018-08-22T17:21:28.891Z,2.70
2018-08-22T17:23:57.136Z,2.70
2018-08-22T17:26:25.532Z,2.55
2018-08-22T17:28:55.583Z,2.40
2018-08-22T17:31:24.971Z,3.02
2018-08-22T17:33:57.140Z,2.92
2018-08-22T17:36:25.475Z,2.50
2018-08-22T17:38:55.856Z,2.80
2018-08-22T17:41:26.169Z,3.27
2018-08-22T17:44:13.031Z,2.90
2018-08-22T17:46:42.647Z,2.80
2018-08-22T17:49:11.032Z,3.25
2018-08-22T17:52:06.640Z,3.10
2018-08-22T17:54:35.239Z,2.74
2018-08-22T17:57:12.968Z,2.98
2018-08-22T17:59:42.350Z,3.27
2018-08-22T18:02:10.670Z,3.27
2018-08-22T18:04:50.303Z,3.52
2018-08-22T18:07:18.687Z,3.27
2018-08-22T18:12:09.115Z,2.70
2018-08-22T18:14:37.332Z,4.10
2018-08-22T18:17:06.324Z,4.53
2018-08-22T18:19:36.084Z,4.35
2018-08-22T18:22:04.487Z,4.83
2018-08-22T18:24:33.136Z,4.55
2018-08-22T18:27:05.051Z,7.03
2018-08-22T18:29:33.956Z,9.15
2018-08-22T18:32:02.388Z,6.33
2018-08-22T18:34:30.967Z,5.72
2018-08-22T18:36:59.268Z,4.95
2018-08-22T18:39:27.540Z,5.33
2018-08-22T18:41:55.859Z,5.70
2018-08-22T18:44:24.180Z,5.97
2018-08-22T18:46:52.460Z,6.47
2018-08-22T18:49:20.776Z,5.75
2018-08-22T18:51:49.067Z,5.78
2018-08-22T18:54:17.445Z,5.90
2018-08-22T18:56:45.725Z,6.40
2018-08-22T18:59:21.852Z,5.25
2018-08-22T19:01:50.121Z,6.03
2018-08-22T19:04:18.425Z,6.03
2018-08-22T19:06:47.256Z,6.93
2018-08-22T19:09:15.551Z,5.75
2018-08-22T19:11:43.862Z,5.85
2018-08-22T19:14:12.246Z,5.20
2018-08-22T19:16:40.508Z,5.87
2018-08-22T19:19:08.822Z,5.87
2018-08-22T19:21:37.834Z,6.22
2018-08-22T19:24:06.887Z,6.65
2018-08-22T19:26:35.287Z,5.83
2018-08-22T19:29:05.389Z,5.25
2018-08-22T19:31:33.983Z,6.83
2018-08-22T19:34:03.301Z,6.40
2018-08-22T19:36:31.690Z,6.35
2018-08-22T19:39:00.450Z,5.92
2018-08-22T19:41:32.874Z,6.33
2018-08-22T19:44:02.156Z,6.62
2018-08-22T19:46:30.560Z,5.97
2018-08-22T19:49:00.557Z,6.65
2018-08-22T19:51:29.865Z,6.45
2018-08-22T19:54:00.449Z,7.10
2018-08-22T19:56:29.333Z,6.72
2018-08-22T19:58:57.753Z,6.45
2018-08-22T20:01:26.297Z,6.40
2018-08-22T20:03:56.893Z,7.40
2018-08-22T20:06:26.476Z,6.90
2018-08-22T20:08:56.696Z,6.58
2018-08-22T20:11:25.253Z,6.60
2018-08-22T20:14:02.911Z,7.23
2018-08-22T20:16:31.744Z,6.67
2018-08-22T20:19:01.399Z,7.15
2018-08-22T20:21:35.143Z,6.25
2018-08-22T20:24:05.085Z,6.50
2018-08-22T20:26:33.784Z,6.80
2018-08-22T20:29:03.576Z,6.85
2018-08-22T20:31:32.504Z,6.87
2018-08-22T20:34:12.028Z,7.10
2018-08-22T20:36:40.823Z,6.67
2018-08-22T20:39:10.956Z,6.10
2018-08-22T20:41:39.955Z,5.50
2018-08-22T20:44:12.095Z,5.58
2018-08-22T20:46:41.764Z,6.85
2018-08-22T20:49:10.068Z,6.58
2018-08-22T20:51:38.335Z,6.10
2018-08-22T20:54:09.798Z,7.20
2018-08-22T20:56:45.243Z,5.65
2018-08-22T20:59:14.420Z,5.93
2018-08-22T21:01:43.910Z,6.33
2018-08-22T21:04:12.111Z,6.60
2018-08-22T21:06:40.389Z,7.50
2018-08-22T21:09:08.657Z,7.12
2018-08-22T21:11:38.228Z,7.40
2018-08-22T21:14:06.822Z,8.00
2018-08-22T21:16:35.520Z,7.75
2018-08-22T21:19:03.972Z,8.10
2018-08-22T21:21:32.282Z,8.15
2018-08-22T21:24:00.594Z,8.60
2018-08-22T21:26:42.262Z,8.68
2018-08-22T21:29:10.483Z,9.38
2018-08-22T21:31:38.708Z,9.47
2018-08-22T21:34:13.558Z,9.30
2018-08-22T21:36:44.457Z,9.00
2018-08-22T21:39:18.045Z,9.53
2018-08-22T21:41:46.975Z,9.38
2018-08-22T21:44:17.840Z,9.13
2018-08-22T21:46:47.914Z,9.58
2018-08-22T21:49:16.391Z,9.73
2018-08-22T21:51:44.677Z,9.50
2018-08-22T21:54:13.492Z,8.75
2018-08-22T21:56:41.694Z,9.70
2018-08-22T21:59:10.663Z,9.15
2018-08-22T22:01:46.264Z,10.40
2018-08-22T22:04:17.200Z,10.28
2018-08-22T22:06:45.436Z,10.58
2018-08-22T22:09:15.772Z,9.80
2018-08-22T22:11:44.388Z,10.28
2018-08-22T22:14:20.775Z,9.88
2018-08-22T22:16:49.308Z,10.15
2018-08-22T22:19:17.557Z,10.45
2018-08-22T22:21:45.776Z,10.80
2018-08-22T22:24:14.028Z,10.93
2018-08-22T22:26:42.216Z,10.90
2018-08-22T22:29:10.932Z,10.60
2018-08-22T22:31:39.872Z,10.28
2018-08-22T22:34:09.928Z,10.25
2018-08-22T22:36:38.161Z,9.18
2018-08-22T22:39:22.512Z,9.75
2018-08-22T22:41:50.732Z,11.97
2018-08-22T22:44:18.952Z,11.28
2018-08-22T22:46:47.188Z,10.68
2018-08-22T22:49:15.584Z,11.12
2018-08-22T22:51:43.877Z,11.08
2018-08-22T22:54:12.128Z,11.68
2018-08-22T22:56:40.327Z,11.70
2018-08-22T22:59:08.572Z,12.13
2018-08-22T23:01:36.834Z,12.10
2018-08-22T23:04:05.170Z,13.25
2018-08-22T23:06:33.730Z,12.88
2018-08-22T23:09:01.999Z,10.65
2018-08-22T23:11:30.264Z,10.08
2018-08-22T23:13:58.495Z,10.20
2018-08-22T23:16:32.223Z,11.60
2018-08-22T23:19:00.488Z,10.63
2018-08-22T23:21:28.703Z,11.22
2018-08-22T23:23:56.927Z,10.85
2018-08-22T23:26:25.127Z,11.85
2018-08-22T23:28:53.340Z,14.03
2018-08-22T23:31:22.248Z,13.13
2018-08-22T23:33:50.442Z,12.43
2018-08-22T23:36:18.675Z,11.97
2018-08-22T23:38:46.880Z,11.40
2018-08-22T23:41:15.087Z,13.38
2018-08-22T23:43:48.757Z,14.05
2018-08-22T23:46:16.972Z,14.55
2018-08-22T23:48:45.168Z,13.40
2018-08-22T23:51:14.283Z,13.38
2018-08-22T23:53:48.983Z,13.55
2018-08-22T23:56:30.390Z,13.68
2018-08-22T23:58:59.235Z,12.30
